sensor_id;sensor_type;location;lat;lon;timestamp;temperature;humidity
46085;DHT22;31823;47.032;8.310;2023-02-15T00:01:36;-1.10;99.90
46085;DHT22;31823;47.032;8.310;2023-02-15T00:04:02;-1.10;99.90
46085;DHT22;31823;47.032;8.310;2023-02-15T00:06:28;-1.10;99.90
46085;DHT22;31823;47.032;8.310;2023-02-15T00:08:54;-1.20;99.90
46085;DHT22;31823;47.032;8.310;2023-02-15T00:11:20;-1.30;99.90
46085;DHT22;31823;47.032;8.310;2023-02-15T00:16:31;-1.40;99.90
46085;DHT22;31823;47.032;8.310;2023-02-15T00:18:56;-1.30;99.90
46085;DHT22;31823;47.032;8.310;2023-02-15T00:21:22;-1.30;99.90
46085;DHT22;31823;47.032;8.310;2023-02-15T00:23:48;-1.20;99.90
46085;DHT22;31823;47.032;8.310;2023-02-15T00:26:13;-1.30;99.90
46085;DHT22;31823;47.032;8.310;2023-02-15T00:28:39;-1.20;99.90
46085;DHT22;31823;47.032;8.310;2023-02-15T00:31:06;-1.30;99.90
46085;DHT22;31823;47.032;8.310;2023-02-15T00:33:32;-1.30;99.90
46085;DHT22;31823;47.032;8.310;2023-02-15T00:35:58;-1.20;99.90
46085;DHT22;31823;47.032;8.310;2023-02-15T00:38:26;-1.20;99.90
46085;DHT22;31823;47.032;8.310;2023-02-15T00:40:55;-1.20;99.90
46085;DHT22;31823;47.032;8.310;2023-02-15T00:43:21;-1.30;99.90
46085;DHT22;31823;47.032;8.310;2023-02-15T00:45:47;-1.40;99.90
46085;DHT22;31823;47.032;8.310;2023-02-15T00:48:12;-1.30;99.90
46085;DHT22;31823;47.032;8.310;2023-02-15T00:50:38;-1.30;99.90
46085;DHT22;31823;47.032;8.310;2023-02-15T00:53:03;-1.30;99.90
46085;DHT22;31823;47.032;8.310;2023-02-15T00:55:29;-1.10;99.90
46085;DHT22;31823;47.032;8.310;2023-02-15T00:57:54;-1.10;99.90
46085;DHT22;31823;47.032;8.310;2023-02-15T01:00:20;-1.30;99.90
46085;DHT22;31823;47.032;8.310;2023-02-15T01:02:45;-1.20;99.90
46085;DHT22;31823;47.032;8.310;2023-02-15T01:05:11;-1.30;99.90
46085;DHT22;31823;47.032;8.310;2023-02-15T01:07:36;-1.40;99.90
46085;DHT22;31823;47.032;8.310;2023-02-15T01:10:02;-1.30;99.90
46085;DHT22;31823;47.032;8.310;2023-02-15T01:12:28;-1.30;99.90
46085;DHT22;31823;47.032;8.310;2023-02-15T01:14:53;-1.30;99.90
46085;DHT22;31823;47.032;8.310;2023-02-15T01:17:19;-1.30;99.90
46085;DHT22;31823;47.032;8.310;2023-02-15T01:19:44;-1.30;99.90
46085;DHT22;31823;47.032;8.310;2023-02-15T01:22:10;-1.30;99.90
46085;DHT22;31823;47.032;8.310;2023-02-15T01:24:35;-1.30;99.90
46085;DHT22;31823;47.032;8.310;2023-02-15T01:27:01;-1.30;99.90
46085;DHT22;31823;47.032;8.310;2023-02-15T01:29:26;-1.20;99.90
46085;DHT22;31823;47.032;8.310;2023-02-15T01:31:52;-1.20;99.90
46085;DHT22;31823;47.032;8.310;2023-02-15T01:34:17;-1.30;99.90
46085;DHT22;31823;47.032;8.310;2023-02-15T01:36:43;-1.20;99.90
46085;DHT22;31823;47.032;8.310;2023-02-15T01:39:08;-1.10;99.90
46085;DHT22;31823;47.032;8.310;2023-02-15T01:41:35;-1.20;99.90
46085;DHT22;31823;47.032;8.310;2023-02-15T01:44:02;-1.20;99.90
46085;DHT22;31823;47.032;8.310;2023-02-15T01:46:34;-1.20;99.90
46085;DHT22;31823;47.032;8.310;2023-02-15T01:49:04;-1.30;99.90
46085;DHT22;31823;47.032;8.310;2023-02-15T01:51:33;-1.30;99.90
46085;DHT22;31823;47.032;8.310;2023-02-15T01:54:08;-1.20;99.90
46085;DHT22;31823;47.032;8.310;2023-02-15T01:56:37;-1.20;99.90
46085;DHT22;31823;47.032;8.310;2023-02-15T01:59:08;-1.40;99.90
46085;DHT22;31823;47.032;8.310;2023-02-15T02:01:34;-1.40;99.90
46085;DHT22;31823;47.032;8.310;2023-02-15T02:04:30;-1.50;99.90
46085;DHT22;31823;47.032;8.310;2023-02-15T02:06:56;-1.50;99.90
46085;DHT22;31823;47.032;8.310;2023-02-15T02:09:23;-1.50;99.90
46085;DHT22;31823;47.032;8.310;2023-02-15T02:11:48;-1.40;99.90
46085;DHT22;31823;47.032;8.310;2023-02-15T02:14:15;-1.50;99.90
46085;DHT22;31823;47.032;8.310;2023-02-15T02:34:09;-1.20;99.90
46085;DHT22;31823;47.032;8.310;2023-02-15T02:42:15;-1.40;99.90
46085;DHT22;31823;47.032;8.310;2023-02-15T02:44:43;-1.30;99.90
46085;DHT22;31823;47.032;8.310;2023-02-15T02:47:21;-1.40;99.90
46085;DHT22;31823;47.032;8.310;2023-02-15T02:49:56;-1.40;99.90
46085;DHT22;31823;47.032;8.310;2023-02-15T02:55:11;-1.30;99.90
46085;DHT22;31823;47.032;8.310;2023-02-15T02:57:47;-1.30;99.90
46085;DHT22;31823;47.032;8.310;2023-02-15T03:00:14;-1.30;99.90
46085;DHT22;31823;47.032;8.310;2023-02-15T03:02:44;-1.20;99.90
46085;DHT22;31823;47.032;8.310;2023-02-15T03:05:18;-1.30;99.90
46085;DHT22;31823;47.032;8.310;2023-02-15T03:07:49;-1.40;99.90
46085;DHT22;31823;47.032;8.310;2023-02-15T03:10:18;-1.30;99.90
46085;DHT22;31823;47.032;8.310;2023-02-15T03:12:44;-1.30;99.90
46085;DHT22;31823;47.032;8.310;2023-02-15T03:15:15;-1.30;99.90
46085;DHT22;31823;47.032;8.310;2023-02-15T03:17:44;-1.30;99.90
46085;DHT22;31823;47.032;8.310;2023-02-15T03:20:17;-1.30;99.90
46085;DHT22;31823;47.032;8.310;2023-02-15T03:22:54;-1.20;99.90
46085;DHT22;31823;47.032;8.310;2023-02-15T03:25:27;-1.20;99.90
46085;DHT22;31823;47.032;8.310;2023-02-15T03:28:00;-1.30;99.90
46085;DHT22;31823;47.032;8.310;2023-02-15T03:30:28;-1.00;99.90
46085;DHT22;31823;47.032;8.310;2023-02-15T03:32:56;-1.10;99.90
46085;DHT22;31823;47.032;8.310;2023-02-15T03:35:25;-1.10;99.90
46085;DHT22;31823;47.032;8.310;2023-02-15T03:37:57;-1.20;99.90
46085;DHT22;31823;47.032;8.310;2023-02-15T03:40:29;-1.20;99.90
46085;DHT22;31823;47.032;8.310;2023-02-15T03:43:24;-1.10;99.90
46085;DHT22;31823;47.032;8.310;2023-02-15T03:45:55;-1.20;99.90
46085;DHT22;31823;47.032;8.310;2023-02-15T03:48:28;-1.20;99.90
46085;DHT22;31823;47.032;8.310;2023-02-15T03:50:58;-1.20;99.90
46085;DHT22;31823;47.032;8.310;2023-02-15T03:53:45;-1.10;99.90
46085;DHT22;31823;47.032;8.310;2023-02-15T03:56:12;-1.10;99.90
46085;DHT22;31823;47.032;8.310;2023-02-15T03:58:37;-1.10;99.90
46085;DHT22;31823;47.032;8.310;2023-02-15T04:01:31;-1.10;99.90
46085;DHT22;31823;47.032;8.310;2023-02-15T04:04:36;-1.00;99.90
46085;DHT22;31823;47.032;8.310;2023-02-15T04:07:04;-1.00;99.90
46085;DHT22;31823;47.032;8.310;2023-02-15T04:09:30;-1.00;99.90
46085;DHT22;31823;47.032;8.310;2023-02-15T04:12:14;-1.00;99.90
46085;DHT22;31823;47.032;8.310;2023-02-15T04:14:40;-1.00;99.90
46085;DHT22;31823;47.032;8.310;2023-02-15T04:17:24;-1.00;99.90
46085;DHT22;31823;47.032;8.310;2023-02-15T04:19:49;-1.00;99.90
46085;DHT22;31823;47.032;8.310;2023-02-15T04:22:33;-1.00;99.90
46085;DHT22;31823;47.032;8.310;2023-02-15T04:25:18;-1.00;99.90
46085;DHT22;31823;47.032;8.310;2023-02-15T04:27:46;-1.00;99.90
46085;DHT22;31823;47.032;8.310;2023-02-15T04:30:14;-1.00;99.90
46085;DHT22;31823;47.032;8.310;2023-02-15T04:32:40;-1.00;99.90
46085;DHT22;31823;47.032;8.310;2023-02-15T04:35:06;-0.90;99.90
46085;DHT22;31823;47.032;8.310;2023-02-15T04:37:32;-0.90;99.90
46085;DHT22;31823;47.032;8.310;2023-02-15T04:39:58;-1.00;99.90
46085;DHT22;31823;47.032;8.310;2023-02-15T04:42:25;-1.00;99.90
46085;DHT22;31823;47.032;8.310;2023-02-15T04:44:51;-1.00;99.90
46085;DHT22;31823;47.032;8.310;2023-02-15T04:47:17;-1.00;99.90
46085;DHT22;31823;47.032;8.310;2023-02-15T04:49:42;-0.90;99.90
46085;DHT22;31823;47.032;8.310;2023-02-15T04:52:08;-0.90;99.90
46085;DHT22;31823;47.032;8.310;2023-02-15T04:54:33;-0.80;99.90
46085;DHT22;31823;47.032;8.310;2023-02-15T04:56:59;-0.90;99.90
46085;DHT22;31823;47.032;8.310;2023-02-15T04:59:24;-0.90;99.90
46085;DHT22;31823;47.032;8.310;2023-02-15T05:01:50;-1.00;99.90
46085;DHT22;31823;47.032;8.310;2023-02-15T05:04:15;-1.00;99.90
46085;DHT22;31823;47.032;8.310;2023-02-15T05:06:41;-0.90;99.90
46085;DHT22;31823;47.032;8.310;2023-02-15T05:09:06;-0.90;99.90
46085;DHT22;31823;47.032;8.310;2023-02-15T05:11:32;-0.90;99.90
46085;DHT22;31823;47.032;8.310;2023-02-15T05:13:58;-1.00;99.90
46085;DHT22;31823;47.032;8.310;2023-02-15T05:16:23;-1.00;99.90
46085;DHT22;31823;47.032;8.310;2023-02-15T05:18:49;-1.00;99.90
46085;DHT22;31823;47.032;8.310;2023-02-15T05:21:15;-1.00;99.90
46085;DHT22;31823;47.032;8.310;2023-02-15T05:23:42;-1.10;99.90
46085;DHT22;31823;47.032;8.310;2023-02-15T05:26:11;-1.10;99.90
46085;DHT22;31823;47.032;8.310;2023-02-15T05:28:55;-1.20;99.90
46085;DHT22;31823;47.032;8.310;2023-02-15T05:31:21;-1.10;99.90
46085;DHT22;31823;47.032;8.310;2023-02-15T05:33:47;-1.10;99.90
46085;DHT22;31823;47.032;8.310;2023-02-15T05:36:12;-1.10;99.90
46085;DHT22;31823;47.032;8.310;2023-02-15T05:38:38;-1.10;99.90
46085;DHT22;31823;47.032;8.310;2023-02-15T05:41:05;-1.10;99.90
46085;DHT22;31823;47.032;8.310;2023-02-15T05:43:32;-1.20;99.90
46085;DHT22;31823;47.032;8.310;2023-02-15T05:45:58;-1.20;99.90
46085;DHT22;31823;47.032;8.310;2023-02-15T05:48:26;-1.20;99.90
46085;DHT22;31823;47.032;8.310;2023-02-15T05:51:12;-1.30;99.90
46085;DHT22;31823;47.032;8.310;2023-02-15T05:53:39;-1.30;99.90
46085;DHT22;31823;47.032;8.310;2023-02-15T05:56:07;-1.30;99.90
46085;DHT22;31823;47.032;8.310;2023-02-15T05:58:35;-1.10;99.90
46085;DHT22;31823;47.032;8.310;2023-02-15T06:01:14;-1.20;99.90
46085;DHT22;31823;47.032;8.310;2023-02-15T06:03:40;-1.30;99.90
46085;DHT22;31823;47.032;8.310;2023-02-15T06:06:06;-1.30;99.90
46085;DHT22;31823;47.032;8.310;2023-02-15T06:08:33;-1.30;99.90
46085;DHT22;31823;47.032;8.310;2023-02-15T06:10:59;-1.30;99.90
46085;DHT22;31823;47.032;8.310;2023-02-15T06:13:25;-1.40;99.90
46085;DHT22;31823;47.032;8.310;2023-02-15T06:15:50;-1.40;99.90
46085;DHT22;31823;47.032;8.310;2023-02-15T06:18:16;-1.40;99.90
46085;DHT22;31823;47.032;8.310;2023-02-15T06:20:41;-1.30;99.90
46085;DHT22;31823;47.032;8.310;2023-02-15T06:23:07;-1.40;99.90
46085;DHT22;31823;47.032;8.310;2023-02-15T06:25:32;-1.40;99.90
46085;DHT22;31823;47.032;8.310;2023-02-15T06:27:58;-1.40;99.90
46085;DHT22;31823;47.032;8.310;2023-02-15T06:30:24;-1.30;99.90
46085;DHT22;31823;47.032;8.310;2023-02-15T06:32:49;-1.40;99.90
46085;DHT22;31823;47.032;8.310;2023-02-15T06:35:15;-1.40;99.90
46085;DHT22;31823;47.032;8.310;2023-02-15T06:37:40;-1.40;99.90
46085;DHT22;31823;47.032;8.310;2023-02-15T06:40:06;-1.40;99.90
46085;DHT22;31823;47.032;8.310;2023-02-15T06:42:33;-1.50;99.90
46085;DHT22;31823;47.032;8.310;2023-02-15T06:44:58;-1.60;99.90
46085;DHT22;31823;47.032;8.310;2023-02-15T06:47:25;-1.60;99.90
46085;DHT22;31823;47.032;8.310;2023-02-15T06:49:51;-1.50;99.90
46085;DHT22;31823;47.032;8.310;2023-02-15T06:52:16;-1.60;99.90
46085;DHT22;31823;47.032;8.310;2023-02-15T06:54:42;-1.60;99.90
46085;DHT22;31823;47.032;8.310;2023-02-15T06:57:07;-1.50;99.90
46085;DHT22;31823;47.032;8.310;2023-02-15T06:59:34;-1.60;99.90
46085;DHT22;31823;47.032;8.310;2023-02-15T07:02:00;-1.50;99.90
46085;DHT22;31823;47.032;8.310;2023-02-15T07:04:25;-1.50;99.90
46085;DHT22;31823;47.032;8.310;2023-02-15T07:06:54;-1.40;99.90
46085;DHT22;31823;47.032;8.310;2023-02-15T07:09:19;-1.50;99.90
46085;DHT22;31823;47.032;8.310;2023-02-15T07:11:45;-1.50;99.90
46085;DHT22;31823;47.032;8.310;2023-02-15T07:14:29;-1.40;99.90
46085;DHT22;31823;47.032;8.310;2023-02-15T07:16:54;-1.30;99.90
46085;DHT22;31823;47.032;8.310;2023-02-15T07:19:20;-1.30;99.90
46085;DHT22;31823;47.032;8.310;2023-02-15T07:21:45;-1.20;99.90
46085;DHT22;31823;47.032;8.310;2023-02-15T07:24:11;-1.50;99.90
46085;DHT22;31823;47.032;8.310;2023-02-15T07:26:36;-1.50;99.90
46085;DHT22;31823;47.032;8.310;2023-02-15T07:29:02;-1.40;99.90
46085;DHT22;31823;47.032;8.310;2023-02-15T07:31:28;-1.40;99.90
46085;DHT22;31823;47.032;8.310;2023-02-15T07:33:53;-1.40;99.90
46085;DHT22;31823;47.032;8.310;2023-02-15T07:36:19;-1.40;99.90
46085;DHT22;31823;47.032;8.310;2023-02-15T07:38:44;-1.20;99.90
46085;DHT22;31823;47.032;8.310;2023-02-15T07:41:13;-1.20;99.90
46085;DHT22;31823;47.032;8.310;2023-02-15T07:43:41;-1.10;99.90
46085;DHT22;31823;47.032;8.310;2023-02-15T07:46:10;-1.00;99.90
46085;DHT22;31823;47.032;8.310;2023-02-15T07:48:37;-1.10;99.90
46085;DHT22;31823;47.032;8.310;2023-02-15T07:51:04;-1.20;99.90
46085;DHT22;31823;47.032;8.310;2023-02-15T07:53:31;-1.10;99.90
46085;DHT22;31823;47.032;8.310;2023-02-15T07:56:02;-1.00;99.90
46085;DHT22;31823;47.032;8.310;2023-02-15T07:58:28;-1.00;99.90
46085;DHT22;31823;47.032;8.310;2023-02-15T08:01:14;-1.00;99.90
46085;DHT22;31823;47.032;8.310;2023-02-15T08:03:40;-0.90;99.90
46085;DHT22;31823;47.032;8.310;2023-02-15T08:06:06;-0.90;99.90
46085;DHT22;31823;47.032;8.310;2023-02-15T08:08:33;-0.80;99.90
46085;DHT22;31823;47.032;8.310;2023-02-15T08:14:10;-1.00;99.90
46085;DHT22;31823;47.032;8.310;2023-02-15T08:16:38;-1.00;99.90
46085;DHT22;31823;47.032;8.310;2023-02-15T08:19:25;-1.00;99.90
46085;DHT22;31823;47.032;8.310;2023-02-15T08:21:52;-0.90;99.90
46085;DHT22;31823;47.032;8.310;2023-02-15T08:24:21;-0.80;99.90
46085;DHT22;31823;47.032;8.310;2023-02-15T08:26:47;-0.70;99.90
46085;DHT22;31823;47.032;8.310;2023-02-15T08:29:18;-0.80;99.90
46085;DHT22;31823;47.032;8.310;2023-02-15T08:31:45;-0.80;99.90
46085;DHT22;31823;47.032;8.310;2023-02-15T08:34:14;-0.80;99.90
46085;DHT22;31823;47.032;8.310;2023-02-15T08:36:40;-0.80;99.90
46085;DHT22;31823;47.032;8.310;2023-02-15T08:39:06;-0.70;99.90
46085;DHT22;31823;47.032;8.310;2023-02-15T08:41:34;-0.70;99.90
46085;DHT22;31823;47.032;8.310;2023-02-15T08:44:03;-0.70;99.90
46085;DHT22;31823;47.032;8.310;2023-02-15T08:46:31;-0.70;99.90
46085;DHT22;31823;47.032;8.310;2023-02-15T08:48:58;-0.70;99.90
46085;DHT22;31823;47.032;8.310;2023-02-15T08:51:25;-0.70;99.90
46085;DHT22;31823;47.032;8.310;2023-02-15T08:53:53;-0.70;99.90
46085;DHT22;31823;47.032;8.310;2023-02-15T08:56:22;-0.50;99.90
46085;DHT22;31823;47.032;8.310;2023-02-15T08:58:48;-0.50;99.90
46085;DHT22;31823;47.032;8.310;2023-02-15T09:01:25;-0.60;99.90
46085;DHT22;31823;47.032;8.310;2023-02-15T09:03:57;-0.40;99.90
46085;DHT22;31823;47.032;8.310;2023-02-15T09:06:23;-0.40;99.90
46085;DHT22;31823;47.032;8.310;2023-02-15T09:08:50;-0.20;99.90
46085;DHT22;31823;47.032;8.310;2023-02-15T09:11:26;-0.20;99.90
46085;DHT22;31823;47.032;8.310;2023-02-15T09:14:03;-0.10;99.90
46085;DHT22;31823;47.032;8.310;2023-02-15T09:16:32;0.00;99.90
46085;DHT22;31823;47.032;8.310;2023-02-15T09:18:58;0.10;99.90
46085;DHT22;31823;47.032;8.310;2023-02-15T09:21:25;0.00;99.90
46085;DHT22;31823;47.032;8.310;2023-02-15T09:23:56;0.10;99.90
46085;DHT22;31823;47.032;8.310;2023-02-15T09:26:23;0.10;99.90
46085;DHT22;31823;47.032;8.310;2023-02-15T09:28:52;0.00;99.90
46085;DHT22;31823;47.032;8.310;2023-02-15T09:31:20;0.00;99.90
46085;DHT22;31823;47.032;8.310;2023-02-15T09:33:47;0.20;99.90
46085;DHT22;31823;47.032;8.310;2023-02-15T09:38:52;0.30;99.90
46085;DHT22;31823;47.032;8.310;2023-02-15T09:41:48;0.40;99.90
46085;DHT22;31823;47.032;8.310;2023-02-15T09:47:12;0.60;99.90
46085;DHT22;31823;47.032;8.310;2023-02-15T09:57:56;1.00;99.90
46085;DHT22;31823;47.032;8.310;2023-02-15T10:06:14;0.80;99.90
46085;DHT22;31823;47.032;8.310;2023-02-15T10:23:22;1.80;99.90
46085;DHT22;31823;47.032;8.310;2023-02-15T10:26:04;2.00;99.90
46085;DHT22;31823;47.032;8.310;2023-02-15T10:33:43;4.20;99.90
46085;DHT22;31823;47.032;8.310;2023-02-15T10:44:10;4.80;99.90
46085;DHT22;31823;47.032;8.310;2023-02-15T10:55:18;3.50;99.90
46085;DHT22;31823;47.032;8.310;2023-02-15T10:57:57;3.50;99.90
46085;DHT22;31823;47.032;8.310;2023-02-15T11:00:38;4.40;99.90
46085;DHT22;31823;47.032;8.310;2023-02-15T11:03:45;4.40;99.90
46085;DHT22;31823;47.032;8.310;2023-02-15T11:06:19;4.20;99.90
46085;DHT22;31823;47.032;8.310;2023-02-15T11:08:51;5.30;99.90
46085;DHT22;31823;47.032;8.310;2023-02-15T11:11:29;6.80;99.90
46085;DHT22;31823;47.032;8.310;2023-02-15T11:14:05;5.20;99.90
46085;DHT22;31823;47.032;8.310;2023-02-15T11:16:40;3.90;99.90
46085;DHT22;31823;47.032;8.310;2023-02-15T11:19:20;5.00;99.90
46085;DHT22;31823;47.032;8.310;2023-02-15T11:21:50;6.40;99.90
46085;DHT22;31823;47.032;8.310;2023-02-15T11:24:19;7.90;99.90
46085;DHT22;31823;47.032;8.310;2023-02-15T11:27:02;9.20;99.90
46085;DHT22;31823;47.032;8.310;2023-02-15T11:29:39;9.30;99.90
46085;DHT22;31823;47.032;8.310;2023-02-15T11:32:35;9.00;99.90
46085;DHT22;31823;47.032;8.310;2023-02-15T11:42:52;7.90;99.90
46085;DHT22;31823;47.032;8.310;2023-02-15T11:45:28;6.20;99.90
46085;DHT22;31823;47.032;8.310;2023-02-15T11:47:56;6.90;99.90
46085;DHT22;31823;47.032;8.310;2023-02-15T11:50:24;8.20;99.90
46085;DHT22;31823;47.032;8.310;2023-02-15T11:53:00;7.50;99.90
46085;DHT22;31823;47.032;8.310;2023-02-15T11:55:27;6.00;99.90
46085;DHT22;31823;47.032;8.310;2023-02-15T11:57:54;5.90;99.90
46085;DHT22;31823;47.032;8.310;2023-02-15T12:00:37;6.60;99.90
46085;DHT22;31823;47.032;8.310;2023-02-15T12:03:13;7.60;99.90
46085;DHT22;31823;47.032;8.310;2023-02-15T12:05:42;7.30;99.90
46085;DHT22;31823;47.032;8.310;2023-02-15T12:08:20;7.00;99.90
46085;DHT22;31823;47.032;8.310;2023-02-15T12:11:02;6.40;99.90
46085;DHT22;31823;47.032;8.310;2023-02-15T12:13:29;6.20;99.90
46085;DHT22;31823;47.032;8.310;2023-02-15T12:15:57;6.50;99.90
46085;DHT22;31823;47.032;8.310;2023-02-15T12:18:43;6.50;99.90
46085;DHT22;31823;47.032;8.310;2023-02-15T12:21:38;7.50;99.90
46085;DHT22;31823;47.032;8.310;2023-02-15T12:26:43;7.00;99.90
46085;DHT22;31823;47.032;8.310;2023-02-15T12:29:16;7.10;99.90
46085;DHT22;31823;47.032;8.310;2023-02-15T12:31:47;6.70;99.90
46085;DHT22;31823;47.032;8.310;2023-02-15T12:34:31;6.30;99.90
46085;DHT22;31823;47.032;8.310;2023-02-15T12:37:02;6.20;99.90
46085;DHT22;31823;47.032;8.310;2023-02-15T12:39:33;6.40;99.90
46085;DHT22;31823;47.032;8.310;2023-02-15T12:42:03;6.40;99.90
46085;DHT22;31823;47.032;8.310;2023-02-15T12:44:32;6.70;99.90
46085;DHT22;31823;47.032;8.310;2023-02-15T12:47:25;6.80;99.90
46085;DHT22;31823;47.032;8.310;2023-02-15T12:50:05;7.20;99.90
46085;DHT22;31823;47.032;8.310;2023-02-15T12:52:31;7.60;99.90
46085;DHT22;31823;47.032;8.310;2023-02-15T12:55:24;8.50;99.90
46085;DHT22;31823;47.032;8.310;2023-02-15T13:00:30;8.80;99.90
46085;DHT22;31823;47.032;8.310;2023-02-15T13:02:58;10.70;99.90
46085;DHT22;31823;47.032;8.310;2023-02-15T13:05:30;11.90;99.90
46085;DHT22;31823;47.032;8.310;2023-02-15T13:07:58;12.30;99.90
46085;DHT22;31823;47.032;8.310;2023-02-15T13:10:31;12.50;99.90
46085;DHT22;31823;47.032;8.310;2023-02-15T13:12:58;12.50;99.90
46085;DHT22;31823;47.032;8.310;2023-02-15T13:17:52;14.70;97.50
46085;DHT22;31823;47.032;8.310;2023-02-15T13:20:21;15.70;96.30
46085;DHT22;31823;47.032;8.310;2023-02-15T13:22:51;15.70;94.50
46085;DHT22;31823;47.032;8.310;2023-02-15T13:25:19;15.70;93.80
46085;DHT22;31823;47.032;8.310;2023-02-15T13:27:50;15.30;94.70
46085;DHT22;31823;47.032;8.310;2023-02-15T13:30:23;16.90;92.50
46085;DHT22;31823;47.032;8.310;2023-02-15T13:32:54;18.20;91.40
46085;DHT22;31823;47.032;8.310;2023-02-15T13:35:21;18.00;89.60
46085;DHT22;31823;47.032;8.310;2023-02-15T13:38:11;18.00;89.60
46085;DHT22;31823;47.032;8.310;2023-02-15T13:40:48;18.70;86.60
46085;DHT22;31823;47.032;8.310;2023-02-15T13:48:51;17.70;86.00
46085;DHT22;31823;47.032;8.310;2023-02-15T13:52:08;16.90;89.40
46085;DHT22;31823;47.032;8.310;2023-02-15T13:54:43;14.90;90.90
46085;DHT22;31823;47.032;8.310;2023-02-15T14:11:14;17.50;85.70
46085;DHT22;31823;47.032;8.310;2023-02-15T14:19:42;18.20;83.40
46085;DHT22;31823;47.032;8.310;2023-02-15T14:30:38;17.10;87.30
46085;DHT22;31823;47.032;8.310;2023-02-15T14:35:53;17.30;87.20
46085;DHT22;31823;47.032;8.310;2023-02-15T14:41:29;16.40;87.10
46085;DHT22;31823;47.032;8.310;2023-02-15T14:44:26;17.70;85.90
46085;DHT22;31823;47.032;8.310;2023-02-15T14:49:31;17.60;84.60
46085;DHT22;31823;47.032;8.310;2023-02-15T14:52:00;14.90;90.20
46085;DHT22;31823;47.032;8.310;2023-02-15T14:59:27;13.60;92.70
46085;DHT22;31823;47.032;8.310;2023-02-15T15:02:10;12.70;94.20
46085;DHT22;31823;47.032;8.310;2023-02-15T15:07:37;12.00;95.40
46085;DHT22;31823;47.032;8.310;2023-02-15T15:25:49;14.30;91.10
46085;DHT22;31823;47.032;8.310;2023-02-15T15:31:39;14.30;91.30
46085;DHT22;31823;47.032;8.310;2023-02-15T15:40:21;13.70;91.00
46085;DHT22;31823;47.032;8.310;2023-02-15T15:45:47;12.70;92.90
46085;DHT22;31823;47.032;8.310;2023-02-15T15:51:20;12.90;92.40
46085;DHT22;31823;47.032;8.310;2023-02-15T15:53:51;12.60;92.90
46085;DHT22;31823;47.032;8.310;2023-02-15T15:56:24;11.50;94.30
46085;DHT22;31823;47.032;8.310;2023-02-15T15:58:55;9.80;96.70
46085;DHT22;31823;47.032;8.310;2023-02-15T16:01:48;8.50;99.40
46085;DHT22;31823;47.032;8.310;2023-02-15T16:04:26;7.50;99.90
46085;DHT22;31823;47.032;8.310;2023-02-15T16:06:53;7.10;99.90
46085;DHT22;31823;47.032;8.310;2023-02-15T16:11:51;5.80;99.90
46085;DHT22;31823;47.032;8.310;2023-02-15T16:14:40;5.30;99.90
46085;DHT22;31823;47.032;8.310;2023-02-15T16:17:18;5.10;99.90
46085;DHT22;31823;47.032;8.310;2023-02-15T16:19:45;4.80;99.90
46085;DHT22;31823;47.032;8.310;2023-02-15T16:22:16;4.70;99.90
46085;DHT22;31823;47.032;8.310;2023-02-15T16:27:35;4.40;99.90
46085;DHT22;31823;47.032;8.310;2023-02-15T16:30:29;4.20;99.90
46085;DHT22;31823;47.032;8.310;2023-02-15T16:33:07;4.10;99.90
46085;DHT22;31823;47.032;8.310;2023-02-15T16:35:34;4.00;99.90
46085;DHT22;31823;47.032;8.310;2023-02-15T16:38:00;4.00;99.90
46085;DHT22;31823;47.032;8.310;2023-02-15T16:40:51;3.90;99.90
46085;DHT22;31823;47.032;8.310;2023-02-15T16:43:23;3.80;99.90
46085;DHT22;31823;47.032;8.310;2023-02-15T16:45:50;3.70;99.90
46085;DHT22;31823;47.032;8.310;2023-02-15T16:48:21;3.70;99.90
46085;DHT22;31823;47.032;8.310;2023-02-15T16:50:54;3.60;99.90
46085;DHT22;31823;47.032;8.310;2023-02-15T16:53:28;3.50;99.90
46085;DHT22;31823;47.032;8.310;2023-02-15T16:56:00;3.40;99.90
46085;DHT22;31823;47.032;8.310;2023-02-15T16:58:53;3.30;99.90
46085;DHT22;31823;47.032;8.310;2023-02-15T17:01:22;3.20;99.90
46085;DHT22;31823;47.032;8.310;2023-02-15T17:03:50;3.10;99.90
46085;DHT22;31823;47.032;8.310;2023-02-15T17:06:22;3.10;99.90
46085;DHT22;31823;47.032;8.310;2023-02-15T17:09:14;3.10;99.90
46085;DHT22;31823;47.032;8.310;2023-02-15T17:11:43;3.00;99.90
46085;DHT22;31823;47.032;8.310;2023-02-15T17:19:18;2.90;99.90
46085;DHT22;31823;47.032;8.310;2023-02-15T17:21:53;2.90;99.90
46085;DHT22;31823;47.032;8.310;2023-02-15T17:26:55;2.80;99.90
46085;DHT22;31823;47.032;8.310;2023-02-15T17:29:34;2.80;99.90
46085;DHT22;31823;47.032;8.310;2023-02-15T17:32:01;2.80;99.90
46085;DHT22;31823;47.032;8.310;2023-02-15T17:34:47;2.70;99.90
46085;DHT22;31823;47.032;8.310;2023-02-15T17:40:29;2.60;99.90
46085;DHT22;31823;47.032;8.310;2023-02-15T17:42:54;2.60;99.90
46085;DHT22;31823;47.032;8.310;2023-02-15T17:45:20;2.60;99.90
46085;DHT22;31823;47.032;8.310;2023-02-15T17:47:47;2.50;99.90
46085;DHT22;31823;47.032;8.310;2023-02-15T17:50:32;2.40;99.90
46085;DHT22;31823;47.032;8.310;2023-02-15T17:52:58;2.40;99.90
46085;DHT22;31823;47.032;8.310;2023-02-15T17:55:26;2.40;99.90
46085;DHT22;31823;47.032;8.310;2023-02-15T17:58:11;2.30;99.90
46085;DHT22;31823;47.032;8.310;2023-02-15T18:00:43;2.30;99.90
46085;DHT22;31823;47.032;8.310;2023-02-15T18:03:48;2.30;99.90
46085;DHT22;31823;47.032;8.310;2023-02-15T18:06:33;2.20;99.90
46085;DHT22;31823;47.032;8.310;2023-02-15T18:09:19;2.20;99.90
46085;DHT22;31823;47.032;8.310;2023-02-15T18:12:27;2.10;99.90
46085;DHT22;31823;47.032;8.310;2023-02-15T18:14:54;2.10;99.90
46085;DHT22;31823;47.032;8.310;2023-02-15T18:17:30;2.10;99.90
46085;DHT22;31823;47.032;8.310;2023-02-15T18:19:57;2.10;99.90
46085;DHT22;31823;47.032;8.310;2023-02-15T18:22:23;2.10;99.90
46085;DHT22;31823;47.032;8.310;2023-02-15T18:24:48;2.10;99.90
46085;DHT22;31823;47.032;8.310;2023-02-15T18:27:15;2.10;99.90
46085;DHT22;31823;47.032;8.310;2023-02-15T18:29:41;2.10;99.90
46085;DHT22;31823;47.032;8.310;2023-02-15T18:32:08;2.10;99.90
46085;DHT22;31823;47.032;8.310;2023-02-15T18:34:39;2.10;99.90
46085;DHT22;31823;47.032;8.310;2023-02-15T18:37:09;2.00;99.90
46085;DHT22;31823;47.032;8.310;2023-02-15T18:39:39;2.10;99.90
46085;DHT22;31823;47.032;8.310;2023-02-15T18:42:19;2.00;99.90
46085;DHT22;31823;47.032;8.310;2023-02-15T18:44:45;2.10;99.90
46085;DHT22;31823;47.032;8.310;2023-02-15T18:47:10;2.10;99.90
46085;DHT22;31823;47.032;8.310;2023-02-15T18:49:36;2.10;99.90
46085;DHT22;31823;47.032;8.310;2023-02-15T18:52:01;2.10;99.90
46085;DHT22;31823;47.032;8.310;2023-02-15T18:54:27;2.00;99.90
46085;DHT22;31823;47.032;8.310;2023-02-15T18:56:57;2.00;99.90
46085;DHT22;31823;47.032;8.310;2023-02-15T18:59:25;2.00;99.90
46085;DHT22;31823;47.032;8.310;2023-02-15T19:01:52;1.90;99.90
46085;DHT22;31823;47.032;8.310;2023-02-15T19:04:18;1.90;99.90
46085;DHT22;31823;47.032;8.310;2023-02-15T19:06:46;1.90;99.90
46085;DHT22;31823;47.032;8.310;2023-02-15T19:09:15;1.80;99.90
46085;DHT22;31823;47.032;8.310;2023-02-15T19:11:52;1.80;99.90
46085;DHT22;31823;47.032;8.310;2023-02-15T19:14:27;1.90;99.90
46085;DHT22;31823;47.032;8.310;2023-02-15T19:16:54;1.90;99.90
46085;DHT22;31823;47.032;8.310;2023-02-15T19:19:21;1.80;99.90